createdAt,value
2018-12-11T00:02:21.250Z,13.97
2018-12-11T00:04:51.997Z,26.80
2018-12-11T00:07:20.739Z,17.70
2018-12-11T00:09:49.464Z,12.37
2018-12-11T00:12:18.258Z,16.93
2018-12-11T00:14:46.934Z,20.90
2018-12-11T00:17:15.818Z,25.53
2018-12-11T00:19:44.458Z,23.07
2018-12-11T00:22:13.248Z,16.25
2018-12-11T00:24:42.030Z,13.63
2018-12-11T00:27:10.698Z,16.67
2018-12-11T00:29:39.453Z,25.97
2018-12-11T00:32:08.142Z,21.73
2018-12-11T00:34:36.789Z,20.27
2018-12-11T00:37:05.534Z,30.37
2018-12-11T00:39:34.298Z,14.37
2018-12-11T00:42:03.050Z,19.93
2018-12-11T00:44:31.843Z,19.30
2018-12-11T00:47:00.981Z,25.27
2018-12-11T00:49:29.633Z,24.97
2018-12-11T00:51:58.261Z,33.43
2018-12-11T00:54:26.989Z,24.07
2018-12-11T00:56:56.607Z,20.00
2018-12-11T00:59:25.305Z,20.37
2018-12-11T01:01:54.009Z,17.27
2018-12-11T01:04:22.819Z,15.00
2018-12-11T01:06:51.574Z,22.67
2018-12-11T01:09:20.322Z,20.27
2018-12-11T01:11:49.077Z,21.83
2018-12-11T01:14:17.855Z,19.77
2018-12-11T01:16:46.605Z,15.37
2018-12-11T01:19:15.364Z,18.13
2018-12-11T01:21:44.054Z,19.60
2018-12-11T01:24:12.769Z,16.23
2018-12-11T01:26:41.530Z,22.10
2018-12-11T01:29:10.249Z,22.53
2018-12-11T01:31:38.924Z,16.53
2018-12-11T01:34:07.662Z,19.77
2018-12-11T01:36:36.491Z,15.83
2018-12-11T01:39:08.500Z,21.20
2018-12-11T01:41:39.166Z,20.27
2018-12-11T01:44:08.165Z,17.53
2018-12-11T01:46:38.339Z,20.93
2018-12-11T01:49:07.293Z,22.67
2018-12-11T01:51:36.166Z,21.23
2018-12-11T01:54:04.983Z,18.83
2018-12-11T01:56:33.754Z,20.50
2018-12-11T01:59:02.546Z,18.07
2018-12-11T02:01:32.145Z,17.23
2018-12-11T02:04:01.192Z,15.83
2018-12-11T02:06:31.554Z,20.27
2018-12-11T02:09:00.211Z,16.67
2018-12-11T02:11:28.878Z,22.57
2018-12-11T02:13:57.622Z,15.70
2018-12-11T02:16:26.469Z,18.92
2018-12-11T02:18:55.273Z,19.07
2018-12-11T02:21:24.101Z,17.13
2018-12-11T02:23:52.873Z,13.13
2018-12-11T02:26:21.633Z,20.25
2018-12-11T02:28:50.397Z,17.37
2018-12-11T02:31:19.316Z,26.23
2018-12-11T02:33:48.067Z,14.80
2018-12-11T02:36:22.682Z,17.23
2018-12-11T02:38:51.402Z,19.47
2018-12-11T02:41:20.205Z,15.73
2018-12-11T02:43:49.121Z,15.95
2018-12-11T02:46:17.818Z,18.87
2018-12-11T02:48:46.597Z,17.03
2018-12-11T02:51:15.309Z,21.68
2018-12-11T02:53:44.145Z,19.63
2018-12-11T02:56:12.910Z,17.05
2018-12-11T02:58:41.541Z,18.90
2018-12-11T03:01:10.165Z,18.30
2018-12-11T03:03:40.366Z,21.80
2018-12-11T03:06:09.124Z,16.57
2018-12-11T03:08:37.916Z,23.47
2018-12-11T03:11:06.745Z,23.90
2018-12-11T03:13:35.596Z,23.50
2018-12-11T03:16:04.304Z,34.00
2018-12-11T03:18:33.485Z,9.18
2018-12-11T03:21:02.305Z,22.33
2018-12-11T03:23:31.044Z,26.80
2018-12-11T03:25:59.954Z,13.33
2018-12-11T03:28:28.672Z,16.13
2018-12-11T03:30:57.367Z,22.73
2018-12-11T03:33:26.062Z,23.73
2018-12-11T03:35:55.009Z,17.33
2018-12-11T03:38:23.741Z,12.83
2018-12-11T03:40:52.435Z,17.63
2018-12-11T03:43:21.238Z,29.98
2018-12-11T03:45:49.962Z,23.77
2018-12-11T03:48:18.739Z,27.60
2018-12-11T03:50:47.478Z,19.10
2018-12-11T03:53:16.182Z,23.77
2018-12-11T03:55:44.837Z,25.87
2018-12-11T03:58:13.626Z,31.00
2018-12-11T04:00:42.362Z,21.30
2018-12-11T04:03:11.136Z,19.93
2018-12-11T04:05:39.905Z,24.63
2018-12-11T04:08:08.554Z,34.47
2018-12-11T04:10:37.367Z,18.07
2018-12-11T04:13:06.154Z,26.60
2018-12-11T04:15:34.900Z,23.67
2018-12-11T04:18:04.608Z,31.77
2018-12-11T04:20:34.342Z,36.63
2018-12-11T04:23:03.105Z,22.37
2018-12-11T04:25:31.813Z,20.40
2018-12-11T04:28:00.632Z,27.82
2018-12-11T04:30:29.371Z,19.40
2018-12-11T04:32:58.163Z,25.10
2018-12-11T04:35:27.041Z,35.43
2018-12-11T04:37:55.832Z,21.23
2018-12-11T04:40:24.549Z,27.87
2018-12-11T04:42:53.645Z,26.07
2018-12-11T04:45:22.286Z,23.33
2018-12-11T04:47:51.038Z,19.92
2018-12-11T04:50:19.694Z,32.60
2018-12-11T04:52:48.566Z,18.27
2018-12-11T04:55:17.503Z,14.63
2018-12-11T04:57:46.590Z,23.60
2018-12-11T05:00:15.267Z,23.70
2018-12-11T05:02:43.957Z,19.90
2018-12-11T05:05:12.773Z,20.97
2018-12-11T05:07:41.430Z,22.47
2018-12-11T05:10:10.207Z,19.60
2018-12-11T05:12:38.909Z,23.27
2018-12-11T05:15:07.693Z,17.57
2018-12-11T05:17:36.366Z,22.00
2018-12-11T05:20:05.386Z,18.47
2018-12-11T05:22:34.212Z,28.23
2018-12-11T05:25:03.017Z,27.80
2018-12-11T05:27:31.723Z,14.47
2018-12-11T05:30:00.426Z,19.03
2018-12-11T05:32:29.191Z,16.50
2018-12-11T05:34:57.834Z,20.30
2018-12-11T05:37:26.658Z,19.90
2018-12-11T05:39:55.305Z,20.00
2018-12-11T05:42:24.033Z,18.20
2018-12-11T05:44:52.745Z,26.97
2018-12-11T05:47:21.641Z,13.60
2018-12-11T05:49:50.421Z,17.73
2018-12-11T05:52:19.542Z,18.70
2018-12-11T05:57:23.779Z,20.77
2018-12-11T05:59:52.439Z,18.13
2018-12-11T06:02:21.146Z,10.55
2018-12-11T06:04:50.569Z,19.93
2018-12-11T06:07:19.462Z,13.07
2018-12-11T06:09:48.177Z,21.37
2018-12-11T06:12:17.068Z,16.17
2018-12-11T06:14:45.757Z,21.00
2018-12-11T06:17:14.525Z,15.53
2018-12-11T06:19:43.264Z,14.13
2018-12-11T06:22:11.984Z,13.93
2018-12-11T06:24:40.703Z,24.27
2018-12-11T06:27:09.337Z,18.20
2018-12-11T06:29:38.032Z,22.40
2018-12-11T06:32:06.694Z,22.43
2018-12-11T06:34:36.506Z,18.77
2018-12-11T06:37:05.450Z,16.47
2018-12-11T06:39:34.195Z,13.93
2018-12-11T06:42:02.945Z,20.17
2018-12-11T06:44:31.638Z,22.87
2018-12-11T06:47:00.357Z,12.57
2018-12-11T06:49:29.040Z,21.47
2018-12-11T06:51:57.714Z,18.33
2018-12-11T06:54:26.397Z,19.67
2018-12-11T06:56:55.065Z,15.60
2018-12-11T06:59:23.777Z,11.53
2018-12-11T07:01:52.633Z,17.07
2018-12-11T07:04:21.349Z,14.93
2018-12-11T07:06:50.043Z,27.27
2018-12-11T07:09:18.831Z,18.67
2018-12-11T07:11:47.545Z,14.60
2018-12-11T07:14:16.307Z,13.50
2018-12-11T07:16:44.909Z,19.82
2018-12-11T07:19:14.674Z,19.13
2018-12-11T07:21:43.453Z,16.50
2018-12-11T07:24:12.249Z,16.77
2018-12-11T07:26:40.938Z,13.47
2018-12-11T07:29:09.566Z,26.70
2018-12-11T07:31:38.203Z,20.43
2018-12-11T07:34:07.322Z,19.53
2018-12-11T07:36:36.158Z,15.27
2018-12-11T07:39:06.408Z,12.10
2018-12-11T07:41:36.058Z,20.97
2018-12-11T07:44:04.774Z,14.17
2018-12-11T07:46:33.552Z,14.03
2018-12-11T07:49:02.524Z,16.77
2018-12-11T07:51:31.275Z,17.20
2018-12-11T07:54:00.096Z,6.30
2018-12-11T07:56:28.875Z,18.67
2018-12-11T07:58:57.558Z,10.73
2018-12-11T08:01:26.379Z,10.70
2018-12-11T08:03:56.103Z,12.70
2018-12-11T08:06:25.088Z,13.47
2018-12-11T08:08:53.754Z,13.97
2018-12-11T08:11:22.571Z,20.72
2018-12-11T08:13:51.262Z,11.40
2018-12-11T08:16:20.354Z,16.95
2018-12-11T08:18:49.227Z,15.20
2018-12-11T08:21:17.915Z,14.40
2018-12-11T08:23:46.624Z,29.67
2018-12-11T08:26:15.265Z,15.17
2018-12-11T08:28:44.306Z,19.83
2018-12-11T08:31:12.986Z,18.23
2018-12-11T08:33:41.874Z,16.03
2018-12-11T08:36:10.533Z,18.30
2018-12-11T08:38:39.238Z,22.53
2018-12-11T08:41:08.500Z,16.47
2018-12-11T08:43:37.240Z,25.13
2018-12-11T08:46:05.807Z,20.33
2018-12-11T08:48:34.511Z,21.02
2018-12-11T08:51:03.153Z,20.93
2018-12-11T08:53:31.868Z,17.47
2018-12-11T08:56:00.640Z,21.80
2018-12-11T08:58:29.333Z,20.90
2018-12-11T09:00:58.143Z,19.90
2018-12-11T09:03:27.059Z,21.27
2018-12-11T09:05:55.686Z,21.13
2018-12-11T09:08:24.375Z,26.87
2018-12-11T09:10:53.071Z,28.67
2018-12-11T09:13:21.743Z,18.17
2018-12-11T09:15:50.417Z,17.60
2018-12-11T09:18:19.108Z,16.87
2018-12-11T09:20:47.764Z,23.60
2018-12-11T09:23:16.519Z,16.00
2018-12-11T09:25:45.202Z,40.10
2018-12-11T09:28:13.838Z,23.70
2018-12-11T09:30:42.528Z,24.93
2018-12-11T09:33:11.277Z,20.97
2018-12-11T09:35:40.037Z,22.27
2018-12-11T09:38:09.533Z,25.65
2018-12-11T09:40:38.227Z,14.67
2018-12-11T09:43:07.251Z,20.67
2018-12-11T09:45:35.979Z,18.70
2018-12-11T09:48:04.709Z,27.70
2018-12-11T09:50:33.469Z,22.10
2018-12-11T09:53:02.161Z,20.43
2018-12-11T09:55:30.914Z,25.43
2018-12-11T09:57:59.931Z,18.10
2018-12-11T10:00:28.658Z,16.67
2018-12-11T10:02:57.481Z,11.53
2018-12-11T10:05:26.305Z,17.20
2018-12-11T10:07:55.317Z,17.57
2018-12-11T10:10:24.009Z,16.07
2018-12-11T10:12:53.094Z,18.93
2018-12-11T10:15:21.835Z,21.20
2018-12-11T10:17:50.491Z,14.23
2018-12-11T10:20:19.345Z,15.70
2018-12-11T10:22:48.120Z,22.33
2018-12-11T10:25:16.821Z,14.20
2018-12-11T10:27:45.709Z,16.27
2018-12-11T10:30:14.574Z,25.50
2018-12-11T10:32:45.659Z,21.37
2018-12-11T10:35:14.341Z,18.87
2018-12-11T10:37:43.114Z,19.80
2018-12-11T10:40:11.821Z,22.53
2018-12-11T10:42:40.606Z,12.97
2018-12-11T10:45:09.382Z,19.43
2018-12-11T10:47:38.165Z,17.17
2018-12-11T10:50:08.084Z,17.30
2018-12-11T10:52:36.903Z,14.67
2018-12-11T10:55:05.650Z,16.30
2018-12-11T10:57:34.425Z,10.53
2018-12-11T11:00:04.463Z,18.30
2018-12-11T11:02:35.198Z,15.10
2018-12-11T11:05:04.130Z,14.13
2018-12-11T11:07:32.821Z,12.33
2018-12-11T11:10:01.553Z,18.17
2018-12-11T11:12:30.671Z,10.07
2018-12-11T11:14:59.269Z,13.83
2018-12-11T11:17:27.980Z,10.13
2018-12-11T11:19:56.677Z,21.77
2018-12-11T11:22:25.364Z,19.03
2018-12-11T11:24:53.997Z,9.85
2018-12-11T11:27:22.741Z,9.17
2018-12-11T11:29:51.402Z,15.83
2018-12-11T11:32:20.149Z,16.67
2018-12-11T11:34:48.885Z,28.07
2018-12-11T11:37:17.596Z,15.43
2018-12-11T11:39:46.413Z,18.87
2018-12-11T11:42:17.081Z,13.07
2018-12-11T11:44:45.752Z,10.33
2018-12-11T11:47:14.434Z,15.77
2018-12-11T11:49:43.101Z,13.10
2018-12-11T11:52:11.717Z,9.07
2018-12-11T11:54:40.560Z,17.10
2018-12-11T11:57:09.268Z,14.00
2018-12-11T11:59:38.049Z,17.80
2018-12-11T12:02:06.784Z,17.33
2018-12-11T12:04:35.529Z,15.67
2018-12-11T12:07:04.288Z,8.10
2018-12-11T12:09:32.936Z,9.40
2018-12-11T12:12:01.607Z,10.13
2018-12-11T12:14:30.444Z,14.93
2018-12-11T12:16:59.165Z,17.52
2018-12-11T12:19:27.884Z,16.30
2018-12-11T12:21:56.625Z,14.70
2018-12-11T12:24:25.311Z,22.30
2018-12-11T12:26:54.030Z,19.80
2018-12-11T12:29:22.665Z,13.77
2018-12-11T12:31:51.506Z,7.70
2018-12-11T12:34:20.121Z,20.43
2018-12-11T12:36:48.793Z,18.50
2018-12-11T12:39:17.584Z,11.03
2018-12-11T12:41:46.316Z,20.50
2018-12-11T12:44:14.990Z,16.40
2018-12-11T12:46:43.695Z,16.17
2018-12-11T12:49:12.634Z,7.53
2018-12-11T12:51:41.286Z,15.77
2018-12-11T12:54:10.036Z,14.07
2018-12-11T12:56:38.766Z,14.10
2018-12-11T12:59:07.513Z,9.17
2018-12-11T13:01:36.198Z,9.77
2018-12-11T13:04:04.947Z,10.80
2018-12-11T13:06:33.897Z,6.23
2018-12-11T13:09:02.739Z,5.77
2018-12-11T13:11:31.493Z,22.17
2018-12-11T13:14:00.265Z,7.72
2018-12-11T13:16:28.970Z,13.93
2018-12-11T13:18:57.618Z,16.47
2018-12-11T13:21:26.308Z,4.73
2018-12-11T13:23:54.927Z,10.17
2018-12-11T13:26:23.609Z,11.53
2018-12-11T13:28:52.383Z,13.07
2018-12-11T13:31:21.041Z,11.53
2018-12-11T13:33:49.666Z,9.03
2018-12-11T13:36:18.365Z,8.47
2018-12-11T13:38:47.064Z,12.00
2018-12-11T13:41:15.907Z,10.87
2018-12-11T13:43:44.906Z,12.43
2018-12-11T13:46:13.695Z,7.77
2018-12-11T13:48:43.803Z,11.80
2018-12-11T13:51:12.421Z,10.30
2018-12-11T13:53:41.133Z,16.10
2018-12-11T13:56:09.808Z,10.55
2018-12-11T13:58:38.494Z,9.17
2018-12-11T14:01:07.265Z,17.83
2018-12-11T14:03:35.961Z,9.93
2018-12-11T14:06:04.730Z,11.03
2018-12-11T14:08:33.396Z,7.00
2018-12-11T14:11:02.252Z,12.60
2018-12-11T14:13:30.902Z,4.53
2018-12-11T14:16:00.802Z,9.77
2018-12-11T14:18:29.485Z,4.17
2018-12-11T14:20:59.277Z,6.87
2018-12-11T14:23:28.065Z,6.60
2018-12-11T14:25:56.792Z,9.03
2018-12-11T14:28:25.541Z,6.83
2018-12-11T14:30:54.354Z,7.93
2018-12-11T14:33:23.425Z,5.67
2018-12-11T14:35:52.171Z,5.87
2018-12-11T14:38:20.851Z,7.37
2018-12-11T14:40:49.584Z,6.00
2018-12-11T14:43:18.206Z,3.77
2018-12-11T14:45:46.924Z,6.65
2018-12-11T14:48:15.983Z,6.23
2018-12-11T14:50:44.745Z,10.83
2018-12-11T14:53:13.433Z,13.60
2018-12-11T14:55:42.253Z,9.20
2018-12-11T14:58:11.350Z,4.87
2018-12-11T15:00:40.101Z,2.90
2018-12-11T15:03:09.265Z,5.53
2018-12-11T15:05:37.906Z,5.47
2018-12-11T15:08:06.668Z,3.20
2018-12-11T15:10:35.539Z,5.93
2018-12-11T15:13:04.272Z,6.33
2018-12-11T15:15:33.015Z,7.80
2018-12-11T15:18:02.922Z,12.70
2018-12-11T15:20:31.694Z,3.83
2018-12-11T15:23:00.392Z,8.60
2018-12-11T15:25:29.470Z,2.20
2018-12-11T15:27:58.247Z,8.45
2018-12-11T15:30:26.882Z,5.03
2018-12-11T15:32:55.617Z,8.10
2018-12-11T15:35:24.516Z,5.23
2018-12-11T15:37:53.273Z,3.40
2018-12-11T15:40:22.017Z,10.27
2018-12-11T15:42:50.736Z,5.62
2018-12-11T15:45:20.509Z,7.53
2018-12-11T15:47:49.326Z,3.57
2018-12-11T15:50:18.015Z,9.67
2018-12-11T15:52:46.698Z,5.17
2018-12-11T15:55:16.282Z,3.83
2018-12-11T15:57:45.069Z,3.63
2018-12-11T16:00:14.091Z,7.80
2018-12-11T16:02:42.949Z,5.80
2018-12-11T16:05:11.690Z,6.33
2018-12-11T16:07:40.459Z,6.30
2018-12-11T16:10:09.221Z,6.97
2018-12-11T16:12:38.965Z,4.13
2018-12-11T16:15:07.731Z,5.90
2018-12-11T16:17:36.510Z,7.97
2018-12-11T16:20:05.333Z,6.47
2018-12-11T16:22:34.053Z,5.40
2018-12-11T16:25:03.080Z,8.40
2018-12-11T16:27:31.990Z,9.63
2018-12-11T16:30:00.831Z,8.30
2018-12-11T16:32:29.562Z,4.30
2018-12-11T16:34:58.370Z,8.23
2018-12-11T16:37:27.140Z,7.03
2018-12-11T16:39:55.905Z,2.47
2018-12-11T16:42:24.585Z,8.40
2018-12-11T16:44:53.250Z,5.07
2018-12-11T16:47:22.052Z,7.47
2018-12-11T16:49:50.965Z,8.93
2018-12-11T16:52:19.801Z,8.07
2018-12-11T16:54:48.596Z,8.73
2018-12-11T16:57:17.394Z,9.73
2018-12-11T16:59:47.012Z,7.07
2018-12-11T17:02:15.722Z,6.67
2018-12-11T17:04:44.351Z,6.80
2018-12-11T17:07:13.431Z,3.37
2018-12-11T17:09:43.275Z,6.60
2018-12-11T17:12:12.644Z,9.73
2018-12-11T17:14:41.692Z,7.17
2018-12-11T17:17:10.544Z,8.07
2018-12-11T17:19:39.254Z,6.03
2018-12-11T17:22:08.030Z,5.33
2018-12-11T17:24:36.688Z,5.73
2018-12-11T17:27:05.430Z,9.73
2018-12-11T17:29:34.076Z,5.17
2018-12-11T17:32:02.866Z,6.60
2018-12-11T17:34:31.606Z,5.50
2018-12-11T17:37:00.326Z,6.67
2018-12-11T17:39:29.002Z,9.03
2018-12-11T17:41:57.617Z,4.67
2018-12-11T17:44:26.348Z,5.70
2018-12-11T17:46:55.071Z,7.30
2018-12-11T17:49:24.222Z,6.40
2018-12-11T17:51:53.134Z,8.28
2018-12-11T17:54:21.864Z,3.53
2018-12-11T17:56:50.569Z,9.80
2018-12-11T17:59:19.388Z,5.37
2018-12-11T18:01:52.713Z,8.43
2018-12-11T18:04:21.366Z,4.57
2018-12-11T18:06:50.148Z,6.77
2018-12-11T18:09:18.893Z,4.23
2018-12-11T18:11:48.102Z,7.13
2018-12-11T18:14:17.110Z,7.57
2018-12-11T18:16:46.109Z,3.97
2018-12-11T18:19:14.925Z,5.67
2018-12-11T18:21:44.249Z,3.97
2018-12-11T18:24:13.043Z,5.60
2018-12-11T18:26:42.092Z,5.60
2018-12-11T18:29:10.742Z,7.87
2018-12-11T18:31:39.378Z,6.23
2018-12-11T18:34:11.172Z,9.00
2018-12-11T18:36:38.845Z,4.80
2018-12-11T18:39:08.812Z,4.90
2018-12-11T18:41:39.434Z,12.63
2018-12-11T18:44:08.150Z,5.30
2018-12-11T18:46:36.869Z,9.03
2018-12-11T18:49:05.700Z,8.10
2018-12-11T18:51:36.294Z,7.90
2018-12-11T18:54:05.058Z,9.13
2018-12-11T18:56:33.758Z,7.80
2018-12-11T18:59:03.769Z,6.23
2018-12-11T19:01:32.541Z,5.35
2018-12-11T19:04:01.284Z,9.03
2018-12-11T19:06:30.031Z,8.73
2018-12-11T19:08:59.081Z,9.33
2018-12-11T19:11:27.856Z,7.17
2018-12-11T19:13:58.057Z,11.97
2018-12-11T19:16:27.957Z,13.25
2018-12-11T19:18:56.957Z,6.87
2018-12-11T19:21:26.077Z,6.17
2018-12-11T19:24:30.433Z,9.80
2018-12-11T19:26:59.156Z,10.13
2018-12-11T19:29:27.849Z,11.93
2018-12-11T19:31:56.551Z,5.33
2018-12-11T19:34:25.401Z,11.33
2018-12-11T19:36:54.137Z,7.37
2018-12-11T19:39:22.957Z,8.27
2018-12-11T19:41:51.771Z,3.57
2018-12-11T19:44:20.629Z,4.23
2018-12-11T19:46:50.848Z,10.53
2018-12-11T19:49:20.394Z,5.00
2018-12-11T19:51:49.976Z,6.17
2018-12-11T19:54:19.901Z,4.57
2018-12-11T19:56:48.521Z,5.23
2018-12-11T19:59:17.225Z,6.53
2018-12-11T20:01:46.130Z,4.80
2018-12-11T20:04:15.152Z,5.90
2018-12-11T20:06:44.532Z,5.73
2018-12-11T20:09:13.576Z,10.97
2018-12-11T20:11:42.501Z,5.43
2018-12-11T20:14:11.414Z,6.37
2018-12-11T20:16:41.042Z,7.43
2018-12-11T20:19:09.775Z,5.80
2018-12-11T20:21:39.479Z,4.70
2018-12-11T20:24:08.246Z,9.40
2018-12-11T20:26:39.548Z,6.40
2018-12-11T20:29:08.266Z,2.62
2018-12-11T20:31:37.016Z,6.77
2018-12-11T20:34:05.687Z,5.97
2018-12-11T20:36:34.615Z,6.10
2018-12-11T20:39:04.305Z,7.80
2018-12-11T20:41:33.095Z,5.63
2018-12-11T20:44:01.903Z,9.50
2018-12-11T20:46:30.634Z,10.13
2018-12-11T20:48:59.354Z,7.17
2018-12-11T20:51:28.437Z,4.33
2018-12-11T20:53:57.268Z,7.53
2018-12-11T20:56:26.042Z,11.20
2018-12-11T20:58:55.142Z,6.13
2018-12-11T21:01:23.985Z,6.40
2018-12-11T21:03:52.700Z,8.20
2018-12-11T21:06:22.953Z,3.67
2018-12-11T21:08:51.859Z,5.37
2018-12-11T21:11:21.222Z,9.03
2018-12-11T21:13:50.245Z,7.60
2018-12-11T21:16:19.005Z,7.33
2018-12-11T21:18:48.065Z,7.17
2018-12-11T21:21:17.106Z,7.80
2018-12-11T21:23:45.905Z,8.07
2018-12-11T21:26:14.587Z,7.20
2018-12-11T21:28:43.558Z,6.70
2018-12-11T21:31:12.174Z,4.10
2018-12-11T21:33:40.948Z,7.70
2018-12-11T21:36:10.021Z,7.17
2018-12-11T21:38:38.733Z,14.40
2018-12-11T21:41:07.448Z,4.80
2018-12-11T21:43:36.218Z,8.70
2018-12-11T21:46:04.942Z,8.23
2018-12-11T21:48:33.593Z,10.33
2018-12-11T21:51:03.173Z,7.33
2018-12-11T21:53:31.923Z,4.83
2018-12-11T21:56:00.518Z,5.80
2018-12-11T21:58:29.736Z,5.63
2018-12-11T22:00:58.546Z,4.85
2018-12-11T22:03:27.492Z,7.10
2018-12-11T22:05:56.457Z,9.57
2018-12-11T22:08:25.128Z,7.70
2018-12-11T22:10:53.837Z,11.70
2018-12-11T22:13:22.614Z,11.17
2018-12-11T22:15:52.314Z,7.97
2018-12-11T22:18:20.920Z,5.70
2018-12-11T22:20:50.041Z,4.70
2018-12-11T22:23:18.757Z,4.90
2018-12-11T22:25:47.363Z,7.13
2018-12-11T22:28:15.995Z,4.53
2018-12-11T22:30:44.648Z,10.93
2018-12-11T22:33:13.312Z,10.63
2018-12-11T22:35:41.981Z,6.80
2018-12-11T22:38:10.709Z,6.72
2018-12-11T22:40:39.422Z,7.10
2018-12-11T22:43:08.897Z,8.37
2018-12-11T22:45:37.614Z,7.73
2018-12-11T22:48:06.332Z,11.90
2018-12-11T22:50:35.061Z,10.57
2018-12-11T22:53:03.806Z,12.63
2018-12-11T22:55:32.469Z,7.83
2018-12-11T22:58:01.176Z,11.53
2018-12-11T23:00:29.873Z,11.00
2018-12-11T23:03:00.649Z,7.13
2018-12-11T23:05:29.373Z,14.30
2018-12-11T23:07:58.046Z,10.77
2018-12-11T23:10:26.889Z,3.90
2018-12-11T23:12:56.613Z,7.50
2018-12-11T23:15:25.265Z,13.23
2018-12-11T23:17:54.030Z,7.17
2018-12-11T23:20:23.621Z,7.53
2018-12-11T23:22:52.261Z,9.27
2018-12-11T23:25:20.957Z,8.93
2018-12-11T23:27:49.609Z,9.37
2018-12-11T23:30:18.385Z,7.90
2018-12-11T23:32:47.152Z,9.07
2018-12-11T23:35:16.169Z,6.07
2018-12-11T23:37:44.836Z,6.17
2018-12-11T23:40:13.525Z,8.97
2018-12-11T23:42:42.224Z,5.53
2018-12-11T23:45:10.949Z,5.00
2018-12-11T23:47:39.638Z,9.17
2018-12-11T23:50:09.328Z,6.60
2018-12-11T23:52:38.073Z,4.60
2018-12-11T23:55:06.801Z,8.50
2018-12-11T23:57:35.409Z,10.57
